Aeroporto :
LOGIN :

Iscrizione | Disclaimer

   EN    FR    IT 

 










Sommario :    VFR   VFR Marginale   IFR   IFR Intensivo   IFR Molto Intensivo
Visibilità : 
Base nubi : 
>= 8 km
>= 3000ft
5 / 8 km
1000 / 3000 ft
1500m / 5 km
500 / 1000 ft
800 / 1500m
200 / 500 ft
< 800m
< 200 ft
Simboli :   Temporali  Nebbia  Neve Forte  Precipitazioni Forti  Vento > 20 kt
SIGMETs :   Varie  Temporali  Ghiacco  Turbolenza  Onda orograficha  Ceneri Vulcaniche






- Altitudine del aeroporto : 297 ft
- Codice IATA : UIP


LFRQ - Quimper Pluguffan

ULTIMO METAR :
  • 020700Z AUTO 23004KT 9999 SCT028/// BKN048/// ///TCU 04/03 Q0992 TEMPO 3000 SHRA BKN012 BKN020CB BECMG 32010KT

METARs OBSOLETI :
  • 020630Z AUTO 22005KT 9999 FEW027 SCT043 04/03 Q0991 TEMPO 3000 SHRA BKN012 BKN020CB BECMG 32010KT
  • 020600Z AUTO 24004KT 9999 FEW033/// SCT078/// ///CB 04/03 Q0992 TEMPO 3000 SHRA BKN012 BKN020CB BECMG 32010KT
  • 020530Z AUTO 24005KT 220V290 9999 SCT030/// SCT084/// ///TCU 04/03 Q0991 TEMPO 3000 SHRA BKN012 BKN020CB
  • 020500Z AUTO 27005KT 230V300 9999 SCT025/// BKN035/// BKN046/// ///CB 05/03 Q0991
  • 020430Z AUTO 24004KT 9999 ///TCU 04/03 Q0991
  • 012100Z AUTO 23013KT 190V260 9999 SCT025/// BKN030/// BKN038/// ///CB 06/04 Q0994 TEMPO VRB20G45KT 1500 TSRAGS BKN012 BKN020CB
  • 020400Z AUTO 27007KT 230V290 9999 FEW024/// BKN032/// BKN038/// ///CB 05/03 Q0991
  • 020330Z AUTO 25006KT 9999 ///TCU 05/03 Q0991
  • 020300Z AUTO 26006KT 9999 FEW035/// BKN056/// BKN066/// ///CB 05/03 Q0991
  • 020230Z AUTO 29013G23KT 9999 FEW016/// BKN029/// BKN035/// ///CB 05/03 Q0992

TAF TAF LFRQ
Valido dal 02 a 06 ore il 03 a 06 ore UTC


020500Z 0206/0306 26010KT 9999 BKN030
TEMPO 0206/0306 3000 SHRA BKN012 BKN020CB
BECMG 0206/0208 32010KT
PROB40
TEMPO 0212/0219 32015G25KT 2000 TSRA
PROB30
TEMPO 0222/0306 1500 TSRAGS



MetMap, La meteo Aeronautica in un colpo d'occhio ! - Copyright ORBIFLY Dicembre 2007 - Disclaimer

ORBIFLY MET'MAP TEAM :

Programmazione e sviluppo : Alexandra Zaïnal
Concezione : Baudouin d'Aumeries
Supporto tecnico e logistico : Manuel Goepfert
Aiuto : Marc-Olivier Méhu
Aiuto per la traduzione : Arnaldo La Scala




FONTI E CREDITI :

   NOAA